Historique des mesures à Cassis (13260), France
Quotidien Résumé Juin 20, 2021 Unités:  Métrique    US   Métrique/US
Quotidien Hebdomadaire Mensuel Annuel
  Maximum: Minimum: Moyenne:
Température: 30.4 °C 20.1 °C 25.4 °C
Point de rosée: 18.2 °C 12.8 °C 15.2 °C
Humidité: 63% 45% 54%
Vitesse du vent: 9.4km/h 0km/h 2.9km/h
Rafales: 13.7km/h - -
Vent- - SSW
Pression: 1013.7 hPa 1010.1 hPa -
Précipitations: 0.0 mm    
Historical Graphs
 
 
Mesures pour : Juin 20, 2021
Heure Temperature Point de rosée Pression Vent Vitesse du vent Rafales Humidité Pluie (par heure)
00:11 22.6 °C 13.6 °C 1010.8 hPa NNW 9.4 km/h 11.9 km/h 57% 0.0 mm
01:11 22.6 °C 13.6 °C 1010.7 hPa NNW 7.6 km/h 10.1 km/h 57% 0.0 mm
02:11 22.2 °C 13.5 °C 1010.8 hPa WNW 2.5 km/h 7.9 km/h 58% 0.0 mm
03:11 22.1 °C 13.7 °C 1010.4 hPa Calm   4 km/h 59% 0.0 mm
04:11 21.6 °C 13.3 °C 1010.1 hPa Calm   3.6 km/h 59% 0.0 mm
05:11 20.4 °C 12.9 °C 1010.4 hPa Calm   5 km/h 62% 0.0 mm
06:11 20.1 °C 12.8 °C 1010.2 hPa NNW 6.5 km/h 7.6 km/h 63% 0.0 mm
07:11 20.4 °C 12.9 °C 1010.8 hPa Calm     62% 0.0 mm
08:11 26.9 °C 15.6 °C 1011.1 hPa Calm   2.5 km/h 50% 0.0 mm
09:11 25.8 °C 14.6 °C 1011.3 hPa WNW 6.8 km/h 7.2 km/h 50% 0.0 mm
10:11 24.6 °C 15.2 °C 1011.6 hPa WNW 5.8 km/h 8.6 km/h 56% 0.0 mm
11:11 27.8 °C 15.7 °C 1012.0 hPa Calm   8.3 km/h 48% 0.0 mm
12:11 29.9 °C 17.4 °C 1012.2 hPa Calm   7.6 km/h 47% 0.0 mm
13:11 30.1 °C 16.8 °C 1012.2 hPa ESE 5.8 km/h 10.1 km/h 45% 0.0 mm
14:11 30.4 °C 17.1 °C 1012.4 hPa ESE 8.3 km/h 13.7 km/h 45% 0.0 mm
15:11 30.1 °C 18.2 °C 1012.7 hPa Calm   9 km/h 49% 0.0 mm
16:11 29.6 °C 16.7 °C 1012.3 hPa SE 3.2 km/h 9.4 km/h 46% 0.0 mm
17:11 29.1 °C 17 °C 1012.3 hPa SE 5 km/h 7.2 km/h 48% 0.0 mm
18:11 28.3 °C 17.8 °C 1012.4 hPa ESE 2.9 km/h 9.7 km/h 53% 0.0 mm
19:11 27.3 °C 16.3 °C 1012.6 hPa Calm   5 km/h 51% 0.0 mm
20:11 26.2 °C 15.9 °C 1012.5 hPa SW 2.5 km/h 5 km/h 53% 0.0 mm
21:11 25 °C 14.2 °C 1012.8 hPa Calm   5.8 km/h 51% 0.0 mm
22:11 24.1 °C 15.3 °C 1013.5 hPa Calm   2.2 km/h 58% 0.0 mm
23:11 22.6 °C 14.9 °C 1013.7 hPa North 3.6 km/h 3.6 km/h 62% 0.0 mm
Observations météo à CASSIS
WU-History script by Weather Underground - 2 mb